createdAt,value
2022-07-29T00:00:03.531Z,1.20
2022-07-29T00:02:32.789Z,1.23
2022-07-29T00:05:02.306Z,1.37
2022-07-29T00:07:29.846Z,1.30
2022-07-29T00:09:57.879Z,1.25
2022-07-29T00:12:27.160Z,1.40
2022-07-29T00:14:55.948Z,1.20
2022-07-29T00:17:23.827Z,1.40
2022-07-29T00:19:51.600Z,1.45
2022-07-29T00:22:20.593Z,1.10
2022-07-29T00:24:49.462Z,1.37
2022-07-29T00:27:17.031Z,1.30
2022-07-29T00:29:44.607Z,1.23
2022-07-29T00:32:12.130Z,1.20
2022-07-29T00:35:05.699Z,1.40
2022-07-29T00:37:34.527Z,1.15
2022-07-29T00:40:02.012Z,1.30
2022-07-29T00:42:29.498Z,1.10
2022-07-29T00:44:57.050Z,1.10
2022-07-29T00:47:24.529Z,1.30
2022-07-29T00:49:52.198Z,1.20
2022-07-29T00:52:19.726Z,1.47
2022-07-29T00:54:48.587Z,1.50
2022-07-29T00:57:16.403Z,1.57
2022-07-29T00:59:43.914Z,1.33
2022-07-29T01:02:11.530Z,1.70
2022-07-29T01:04:39.441Z,1.50
2022-07-29T01:07:07.744Z,1.50
2022-07-29T01:09:46.378Z,1.40
2022-07-29T01:12:18.454Z,1.83
2022-07-29T01:14:47.451Z,1.60
2022-07-29T01:17:22.726Z,1.47
2022-07-29T01:19:58.146Z,1.70
2022-07-29T01:22:37.079Z,1.60
2022-07-29T01:25:16.638Z,1.40
2022-07-29T01:28:02.095Z,1.30
2022-07-29T01:30:32.460Z,1.50
2022-07-29T01:33:08.099Z,1.60
2022-07-29T01:35:40.275Z,1.30
2022-07-29T01:38:12.667Z,1.50
2022-07-29T01:40:45.106Z,1.47
2022-07-29T01:43:16.795Z,1.50
2022-07-29T01:45:52.217Z,1.40
2022-07-29T01:48:25.172Z,1.40
2022-07-29T01:50:59.569Z,1.47
2022-07-29T01:53:36.439Z,1.47
2022-07-29T01:56:08.255Z,1.83
2022-07-29T01:58:40.711Z,1.50
2022-07-29T02:01:11.846Z,1.60
2022-07-29T02:03:41.127Z,1.60
2022-07-29T02:06:10.258Z,1.43
2022-07-29T02:08:41.027Z,1.60
2022-07-29T02:11:10.287Z,1.40
2022-07-29T02:13:39.615Z,1.80
2022-07-29T02:16:11.474Z,1.50
2022-07-29T02:18:42.714Z,1.43
2022-07-29T02:21:15.575Z,1.50
2022-07-29T02:23:51.101Z,1.60
2022-07-29T02:26:21.263Z,1.60
2022-07-29T02:28:50.568Z,1.60
2022-07-29T02:31:23.584Z,1.30
2022-07-29T02:33:53.326Z,1.57
2022-07-29T02:36:24.490Z,1.50
2022-07-29T02:38:52.587Z,1.60
2022-07-29T02:41:28.148Z,1.43
2022-07-29T02:44:03.615Z,1.50
2022-07-29T02:46:34.747Z,1.50
2022-07-29T02:49:09.246Z,1.57
2022-07-29T02:51:45.536Z,1.40
2022-07-29T02:54:23.982Z,1.50
2022-07-29T02:56:54.551Z,1.50
2022-07-29T02:59:26.820Z,1.70
2022-07-29T03:01:57.295Z,1.33
2022-07-29T03:04:29.268Z,1.60
2022-07-29T03:07:01.038Z,1.57
2022-07-29T03:09:30.097Z,1.43
2022-07-29T03:11:58.954Z,1.50
2022-07-29T03:14:27.313Z,1.57
2022-07-29T03:16:56.611Z,1.80
2022-07-29T03:19:24.218Z,1.60
2022-07-29T03:21:51.763Z,1.50
2022-07-29T03:24:29.987Z,1.40
2022-07-29T03:26:58.735Z,1.63
2022-07-29T03:29:33.680Z,1.50
2022-07-29T03:32:07.222Z,1.70
2022-07-29T03:34:36.532Z,1.50
2022-07-29T03:37:04.014Z,1.50
2022-07-29T03:39:35.515Z,1.47
2022-07-29T03:42:04.042Z,1.40
2022-07-29T03:44:34.131Z,1.37
2022-07-29T03:47:06.009Z,1.70
2022-07-29T03:49:37.855Z,1.70
2022-07-29T03:52:06.099Z,1.53
2022-07-29T03:54:33.654Z,1.30
2022-07-29T03:57:03.107Z,1.60
2022-07-29T03:59:32.798Z,1.63
2022-07-29T04:02:01.947Z,1.60
2022-07-29T04:04:30.915Z,1.80
2022-07-29T04:06:58.394Z,1.70
2022-07-29T04:09:25.895Z,1.70
2022-07-29T04:12:02.408Z,1.50
2022-07-29T04:14:32.022Z,1.37
2022-07-29T04:16:59.598Z,1.50
2022-07-29T04:19:27.302Z,1.70
2022-07-29T04:21:57.460Z,1.73
2022-07-29T04:24:25.142Z,1.70
2022-07-29T04:26:52.771Z,2.13
2022-07-29T04:29:20.759Z,2.03
2022-07-29T04:31:48.322Z,1.77
2022-07-29T04:34:16.304Z,1.80
2022-07-29T04:36:43.956Z,2.00
2022-07-29T04:39:12.783Z,1.80
2022-07-29T04:41:40.265Z,2.17
2022-07-29T04:44:07.742Z,2.30
2022-07-29T04:46:37.000Z,1.80
2022-07-29T04:49:05.161Z,1.90
2022-07-29T04:51:32.941Z,1.80
2022-07-29T04:54:00.419Z,2.07
2022-07-29T04:56:29.415Z,2.07
2022-07-29T04:58:57.064Z,1.90
2022-07-29T05:01:24.606Z,2.00
2022-07-29T05:03:53.969Z,2.07
2022-07-29T05:06:24.599Z,2.20
2022-07-29T05:08:52.082Z,2.03
2022-07-29T05:11:22.346Z,1.90
2022-07-29T05:13:52.822Z,1.87
2022-07-29T05:16:20.597Z,2.00
2022-07-29T05:18:48.143Z,2.00
2022-07-29T05:21:15.707Z,2.10
2022-07-29T05:23:43.174Z,1.80
2022-07-29T05:26:10.648Z,1.80
2022-07-29T05:28:38.629Z,2.07
2022-07-29T05:31:07.598Z,2.00
2022-07-29T05:33:37.046Z,2.30
2022-07-29T05:36:06.338Z,1.97
2022-07-29T05:38:33.824Z,1.80
2022-07-29T05:41:01.826Z,1.87
2022-07-29T05:43:29.874Z,1.80
2022-07-29T05:45:57.672Z,1.87
2022-07-29T05:48:26.641Z,1.93
2022-07-29T05:50:54.216Z,2.03
2022-07-29T05:53:22.124Z,1.83
2022-07-29T05:55:50.127Z,2.00
2022-07-29T05:58:17.890Z,1.80
2022-07-29T06:00:45.618Z,1.70
2022-07-29T06:03:13.578Z,1.90
2022-07-29T06:05:42.487Z,1.70
2022-07-29T06:08:09.999Z,2.00
2022-07-29T06:10:37.507Z,1.80
2022-07-29T06:13:05.175Z,1.83
2022-07-29T06:15:32.797Z,1.80
2022-07-29T06:18:01.578Z,1.80
2022-07-29T06:20:31.134Z,1.90
2022-07-29T06:23:01.209Z,2.03
2022-07-29T06:25:29.956Z,1.83
2022-07-29T06:27:57.601Z,1.90
2022-07-29T06:30:25.242Z,2.10
2022-07-29T06:32:52.797Z,1.80
2022-07-29T06:35:40.900Z,1.90
2022-07-29T06:38:30.369Z,1.90
2022-07-29T06:41:03.326Z,2.00
2022-07-29T06:43:34.539Z,1.80
2022-07-29T06:46:03.114Z,1.97
2022-07-29T06:48:30.771Z,2.00
2022-07-29T06:50:58.346Z,1.83
2022-07-29T06:53:27.684Z,1.90
2022-07-29T06:55:55.276Z,2.00
2022-07-29T06:58:22.846Z,2.20
2022-07-29T07:00:50.391Z,2.23
2022-07-29T07:03:19.095Z,1.77
2022-07-29T07:05:47.527Z,1.90
2022-07-29T07:08:16.982Z,2.00
2022-07-29T07:10:45.929Z,2.20
2022-07-29T07:13:13.525Z,2.10
2022-07-29T07:15:41.061Z,2.10
2022-07-29T07:18:09.031Z,2.30
2022-07-29T07:20:38.528Z,2.30
2022-07-29T07:23:06.451Z,2.22
2022-07-29T07:25:34.082Z,2.40
2022-07-29T07:28:02.882Z,2.50
2022-07-29T07:30:30.598Z,2.10
2022-07-29T07:32:58.103Z,2.17
2022-07-29T07:35:25.610Z,2.20
2022-07-29T07:37:53.114Z,2.20
2022-07-29T07:40:20.629Z,2.20
2022-07-29T07:42:48.125Z,2.05
2022-07-29T07:45:17.943Z,2.08
2022-07-29T07:47:45.692Z,2.00
2022-07-29T07:50:18.654Z,1.92
2022-07-29T07:52:51.142Z,2.25
2022-07-29T07:55:19.100Z,1.98
2022-07-29T07:57:47.098Z,1.80
2022-07-29T08:00:17.551Z,2.00
2022-07-29T08:02:45.954Z,1.98
2022-07-29T08:05:17.702Z,1.88
2022-07-29T08:07:46.707Z,2.20
2022-07-29T08:10:15.015Z,2.00
2022-07-29T08:12:43.568Z,2.00
2022-07-29T08:15:11.392Z,1.80
2022-07-29T08:17:40.197Z,1.90
2022-07-29T08:20:08.372Z,1.90
2022-07-29T08:22:35.855Z,1.95
2022-07-29T08:25:03.502Z,1.73
2022-07-29T08:27:43.516Z,2.10
2022-07-29T08:30:12.244Z,1.90
2022-07-29T08:32:53.640Z,1.92
2022-07-29T08:35:22.429Z,1.90
2022-07-29T08:37:50.466Z,1.90
2022-07-29T08:40:18.183Z,1.70
2022-07-29T08:42:46.137Z,1.98
2022-07-29T08:45:13.882Z,2.00
2022-07-29T08:47:43.254Z,1.80
2022-07-29T08:50:11.771Z,1.98
2022-07-29T08:52:41.593Z,2.20
2022-07-29T08:55:11.874Z,1.98
2022-07-29T08:57:43.380Z,1.90
2022-07-29T09:00:20.072Z,1.85
2022-07-29T09:02:56.714Z,1.67
2022-07-29T09:05:25.738Z,1.80
2022-07-29T09:07:53.943Z,1.75
2022-07-29T09:10:21.739Z,2.20
2022-07-29T09:12:49.685Z,1.90
2022-07-29T09:15:17.207Z,2.00
2022-07-29T09:17:46.273Z,1.85
2022-07-29T09:20:17.741Z,2.00
2022-07-29T09:22:48.050Z,1.92
2022-07-29T09:25:15.566Z,1.98
2022-07-29T09:27:43.101Z,1.75
2022-07-29T09:30:12.451Z,2.00
2022-07-29T09:32:59.055Z,2.10
2022-07-29T09:35:28.584Z,1.80
2022-07-29T09:37:56.303Z,1.70
2022-07-29T09:40:25.926Z,1.90
2022-07-29T09:42:55.011Z,1.85
2022-07-29T09:45:32.843Z,1.90
2022-07-29T09:48:03.752Z,1.90
2022-07-29T09:50:40.138Z,1.63
2022-07-29T09:53:10.201Z,1.88
2022-07-29T09:55:49.598Z,1.80
2022-07-29T09:58:18.341Z,1.77
2022-07-29T10:00:48.690Z,1.70
2022-07-29T10:03:16.881Z,1.88
2022-07-29T10:05:46.690Z,1.85
2022-07-29T10:08:14.663Z,1.75
2022-07-29T10:10:44.379Z,1.83
2022-07-29T10:13:16.041Z,2.00
2022-07-29T10:15:46.045Z,1.90
2022-07-29T10:18:18.127Z,1.90
2022-07-29T10:20:47.148Z,1.90
2022-07-29T10:23:15.120Z,1.98
2022-07-29T10:25:46.429Z,2.80
2022-07-29T10:28:16.415Z,2.30
2022-07-29T10:30:46.846Z,2.13
2022-07-29T10:33:31.320Z,2.13
2022-07-29T10:36:22.666Z,2.20
2022-07-29T10:38:57.377Z,2.10
2022-07-29T10:41:47.479Z,2.03
2022-07-29T10:44:19.328Z,1.92
2022-07-29T10:46:51.774Z,1.80
2022-07-29T10:49:24.745Z,1.80
2022-07-29T10:52:03.498Z,1.60
2022-07-29T10:54:48.520Z,1.80
2022-07-29T10:57:18.461Z,1.80
2022-07-29T10:59:50.009Z,1.90
2022-07-29T11:02:52.842Z,1.70
2022-07-29T11:05:21.833Z,1.50
2022-07-29T11:08:27.769Z,1.52
2022-07-29T11:11:32.836Z,1.95
2022-07-29T11:14:02.503Z,1.73
2022-07-29T11:17:00.350Z,1.67
2022-07-29T11:19:30.553Z,1.80
2022-07-29T11:21:59.115Z,1.73
2022-07-29T11:24:30.380Z,1.65
2022-07-29T11:27:13.291Z,1.60
2022-07-29T11:29:49.727Z,1.67
2022-07-29T11:32:22.698Z,1.58
2022-07-29T11:35:17.208Z,1.70
2022-07-29T11:37:52.547Z,1.63
2022-07-29T11:40:23.655Z,1.70
2022-07-29T11:42:52.400Z,1.63
2022-07-29T11:45:47.838Z,1.60
2022-07-29T11:51:13.318Z,1.60
2022-07-29T11:53:41.210Z,1.77
2022-07-29T11:56:10.998Z,1.77
2022-07-29T11:58:43.932Z,1.88
2022-07-29T12:01:15.515Z,1.70
2022-07-29T12:06:31.842Z,1.90
2022-07-29T12:07:02.107Z,1.80
2022-07-29T12:07:02.572Z,1.67
2022-07-29T12:09:01.051Z,1.80
2022-07-29T12:11:28.917Z,1.63
2022-07-29T12:13:56.743Z,1.80
2022-07-29T12:16:27.883Z,1.70
2022-07-29T12:19:02.326Z,1.80
2022-07-29T12:21:50.931Z,2.08
2022-07-29T12:24:26.984Z,1.60
2022-07-29T12:26:56.311Z,2.00
2022-07-29T12:29:33.834Z,1.80
2022-07-29T12:32:05.141Z,1.52
2022-07-29T12:34:33.724Z,1.88
2022-07-29T12:37:02.655Z,1.70
2022-07-29T12:39:30.394Z,1.80
2022-07-29T12:42:03.958Z,1.38
2022-07-29T12:44:45.730Z,1.80
2022-07-29T12:47:13.243Z,1.90
2022-07-29T12:49:40.756Z,1.50
2022-07-29T12:52:28.186Z,1.33
2022-07-29T12:54:55.713Z,1.67
2022-07-29T12:57:23.237Z,1.60
2022-07-29T13:00:09.830Z,1.60
2022-07-29T13:02:37.847Z,1.40
2022-07-29T13:05:07.502Z,1.70
2022-07-29T13:07:55.709Z,1.52
2022-07-29T13:10:25.736Z,1.70
2022-07-29T13:13:07.228Z,1.50
2022-07-29T13:15:35.796Z,1.50
2022-07-29T13:18:03.894Z,1.50
2022-07-29T13:20:31.847Z,1.50
2022-07-29T13:23:02.074Z,1.50
2022-07-29T13:25:31.311Z,1.50
2022-07-29T13:27:59.287Z,1.70
2022-07-29T13:30:27.504Z,1.55
2022-07-29T13:32:55.959Z,1.80
2022-07-29T13:35:23.451Z,1.50
2022-07-29T13:37:52.001Z,1.50
2022-07-29T13:40:21.187Z,1.55
2022-07-29T13:42:49.037Z,1.70
2022-07-29T13:45:16.519Z,1.67
2022-07-29T13:47:49.161Z,1.65
2022-07-29T13:50:17.074Z,1.80
2022-07-29T13:52:44.559Z,1.67
2022-07-29T13:55:12.106Z,1.70
2022-07-29T13:57:40.906Z,1.60
2022-07-29T14:00:10.523Z,1.65
2022-07-29T14:02:39.244Z,1.77
2022-07-29T14:05:08.649Z,1.70
2022-07-29T14:07:36.492Z,1.80
2022-07-29T14:10:04.974Z,1.65
2022-07-29T14:12:32.678Z,1.67
2022-07-29T14:15:01.610Z,1.70
2022-07-29T14:17:29.123Z,1.63
2022-07-29T14:19:56.728Z,1.90
2022-07-29T14:22:26.040Z,1.80
2022-07-29T14:24:54.227Z,1.60
2022-07-29T14:27:37.400Z,1.67
2022-07-29T14:30:08.389Z,1.70
2022-07-29T14:32:35.894Z,1.70
2022-07-29T14:35:03.375Z,1.90
2022-07-29T14:37:37.620Z,1.75
2022-07-29T14:40:09.506Z,1.77
2022-07-29T14:42:37.902Z,1.73
2022-07-29T14:45:08.758Z,1.55
2022-07-29T14:47:36.366Z,1.70
2022-07-29T14:50:04.954Z,2.03
2022-07-29T14:52:32.462Z,1.90
2022-07-29T14:55:00.423Z,1.70
2022-07-29T14:57:27.891Z,1.90
2022-07-29T14:59:55.447Z,2.03
2022-07-29T15:02:40.014Z,2.10
2022-07-29T15:05:11.755Z,2.00
2022-07-29T15:07:39.211Z,2.10
2022-07-29T15:10:07.506Z,2.03
2022-07-29T15:12:35.894Z,1.95
2022-07-29T15:15:03.472Z,2.10
2022-07-29T15:17:32.453Z,2.10
2022-07-29T15:20:00.377Z,2.10
2022-07-29T15:22:27.875Z,2.15
2022-07-29T15:24:55.459Z,2.20
2022-07-29T15:27:22.944Z,2.05
2022-07-29T15:29:50.643Z,2.22
2022-07-29T15:32:18.375Z,1.92
2022-07-29T15:34:48.134Z,2.20
2022-07-29T15:37:15.598Z,1.75
2022-07-29T15:39:43.170Z,2.20
2022-07-29T15:42:10.666Z,2.28
2022-07-29T15:44:38.175Z,2.13
2022-07-29T15:47:05.655Z,2.00
2022-07-29T15:49:47.717Z,2.00
2022-07-29T15:52:25.130Z,2.00
2022-07-29T15:54:53.186Z,1.90
2022-07-29T15:57:20.710Z,1.85
2022-07-29T15:59:48.225Z,1.95
2022-07-29T16:02:15.732Z,2.10
2022-07-29T16:04:43.263Z,2.00
2022-07-29T16:07:10.761Z,2.00
2022-07-29T16:09:39.675Z,1.92
2022-07-29T16:12:14.912Z,1.90
2022-07-29T16:14:43.773Z,1.90
2022-07-29T16:17:14.853Z,1.90
2022-07-29T16:19:43.675Z,1.90
2022-07-29T16:22:11.631Z,1.73
2022-07-29T16:24:40.558Z,1.77
2022-07-29T16:27:08.513Z,2.00
2022-07-29T16:29:36.863Z,1.90
2022-07-29T16:32:04.722Z,2.00
2022-07-29T16:34:32.270Z,2.20
2022-07-29T16:37:00.067Z,2.00
2022-07-29T16:39:27.915Z,2.20
2022-07-29T16:42:00.277Z,1.98
2022-07-29T16:44:29.142Z,2.03
2022-07-29T16:46:58.640Z,1.88
2022-07-29T16:49:27.161Z,2.03
2022-07-29T16:51:54.781Z,1.92
2022-07-29T16:54:22.353Z,2.08
2022-07-29T16:56:49.819Z,2.28
2022-07-29T16:59:18.679Z,2.00
2022-07-29T17:01:46.216Z,1.90
2022-07-29T17:04:14.923Z,2.00
2022-07-29T17:06:42.522Z,1.90
2022-07-29T17:09:11.486Z,2.25
2022-07-29T17:11:52.374Z,2.22
2022-07-29T17:14:25.435Z,2.58
2022-07-29T17:17:02.078Z,2.47
2022-07-29T17:19:31.776Z,2.70
2022-07-29T17:22:08.404Z,2.78
2022-07-29T17:24:36.908Z,2.60
2022-07-29T17:27:06.050Z,2.38
2022-07-29T17:29:35.849Z,2.53
2022-07-29T17:32:03.703Z,2.40
2022-07-29T17:34:31.639Z,2.15
2022-07-29T17:36:59.604Z,2.45
2022-07-29T17:39:27.439Z,2.20
2022-07-29T17:41:54.935Z,2.42
2022-07-29T17:44:22.435Z,2.40
2022-07-29T17:46:51.470Z,2.30
2022-07-29T17:49:19.442Z,2.50
2022-07-29T17:51:46.968Z,2.40
2022-07-29T17:54:14.723Z,2.10
2022-07-29T17:56:42.484Z,2.20
2022-07-29T17:59:10.184Z,2.53
2022-07-29T18:01:38.016Z,2.30
2022-07-29T18:04:07.159Z,2.50
2022-07-29T18:06:34.792Z,2.50
2022-07-29T18:09:02.311Z,2.30
2022-07-29T18:11:30.806Z,2.30
2022-07-29T18:13:58.310Z,2.13
2022-07-29T18:16:29.988Z,2.20
2022-07-29T18:18:57.875Z,2.38
2022-07-29T18:21:43.508Z,2.22
2022-07-29T18:24:16.358Z,2.25
2022-07-29T18:26:43.817Z,2.47
2022-07-29T18:29:11.622Z,2.05
2022-07-29T18:31:40.963Z,2.00
2022-07-29T18:34:08.547Z,2.08
2022-07-29T18:36:37.527Z,1.98
2022-07-29T18:39:05.146Z,1.95
2022-07-29T18:41:33.364Z,1.92
2022-07-29T18:44:00.863Z,2.10
2022-07-29T18:46:28.808Z,2.30
2022-07-29T18:48:57.139Z,2.15
2022-07-29T18:51:24.741Z,1.80
2022-07-29T18:53:53.583Z,2.10
2022-07-29T18:56:21.072Z,2.10
2022-07-29T18:58:48.831Z,1.95
2022-07-29T19:01:16.909Z,2.05
2022-07-29T19:03:44.506Z,2.00
2022-07-29T19:06:11.999Z,1.92
2022-07-29T19:08:39.569Z,2.00
2022-07-29T19:11:08.711Z,2.28
2022-07-29T19:13:36.980Z,2.10
2022-07-29T19:16:04.747Z,2.10
2022-07-29T19:18:32.246Z,2.35
2022-07-29T19:20:59.790Z,2.30
2022-07-29T19:23:27.507Z,2.25
2022-07-29T19:25:55.011Z,2.03
2022-07-29T19:28:24.087Z,2.50
2022-07-29T19:30:51.624Z,2.17
2022-07-29T19:33:19.254Z,2.05
2022-07-29T19:35:50.338Z,2.10
2022-07-29T19:38:20.402Z,2.00
2022-07-29T19:40:48.461Z,2.35
2022-07-29T19:43:50.789Z,2.10
2022-07-29T19:46:04.938Z,2.30
2022-07-29T19:48:32.475Z,2.47
2022-07-29T19:50:59.972Z,2.40
2022-07-29T19:53:27.511Z,2.53
2022-07-29T19:55:55.130Z,2.50
2022-07-29T19:58:22.623Z,2.45
2022-07-29T20:00:54.813Z,2.65
2022-07-29T20:03:23.616Z,2.63
2022-07-29T20:05:52.695Z,2.22
2022-07-29T20:08:20.248Z,2.50
2022-07-29T20:10:47.858Z,2.47
2022-07-29T20:13:15.387Z,2.33
2022-07-29T20:15:42.999Z,2.30
2022-07-29T20:18:10.545Z,2.30
2022-07-29T20:20:39.422Z,2.47
2022-07-29T20:23:06.903Z,2.25
2022-07-29T20:25:34.404Z,2.40
2022-07-29T20:28:01.874Z,2.50
2022-07-29T20:30:29.460Z,2.33
2022-07-29T20:32:56.939Z,2.50
2022-07-29T20:35:24.530Z,2.30
2022-07-29T20:37:56.074Z,2.53
2022-07-29T20:40:24.992Z,2.30
2022-07-29T20:42:52.595Z,2.30
2022-07-29T20:45:20.846Z,2.30
2022-07-29T20:47:48.331Z,2.20
2022-07-29T20:50:15.959Z,2.88
2022-07-29T20:52:44.068Z,3.30
2022-07-29T20:55:12.927Z,2.50
2022-07-29T20:57:40.431Z,2.58
2022-07-29T21:00:09.070Z,2.33
2022-07-29T21:02:36.943Z,2.25
2022-07-29T21:05:05.339Z,2.70
2022-07-29T21:07:32.840Z,2.50
2022-07-29T21:10:00.480Z,2.42
2022-07-29T21:12:29.965Z,2.20
2022-07-29T21:14:57.670Z,2.67
2022-07-29T21:17:25.163Z,2.50
2022-07-29T21:19:55.102Z,2.35
2022-07-29T21:22:22.663Z,2.60
2022-07-29T21:24:50.383Z,2.40
2022-07-29T21:27:38.477Z,2.50
2022-07-29T21:30:09.378Z,2.35
2022-07-29T21:32:37.452Z,2.30
2022-07-29T21:35:18.163Z,2.20
2022-07-29T21:37:53.677Z,2.33
2022-07-29T21:40:21.547Z,2.30
2022-07-29T21:42:49.024Z,2.40
2022-07-29T21:45:18.699Z,2.13
2022-07-29T21:47:46.186Z,2.00
2022-07-29T21:50:13.693Z,2.17
2022-07-29T21:52:41.204Z,2.20
2022-07-29T21:55:10.661Z,2.10
2022-07-29T21:57:39.314Z,2.30
2022-07-29T22:00:10.279Z,2.40
2022-07-29T22:02:39.079Z,1.97
2022-07-29T22:05:06.842Z,2.37
2022-07-29T22:07:55.834Z,2.40
2022-07-29T22:10:21.983Z,2.00
2022-07-29T22:12:51.927Z,2.30
2022-07-29T22:15:19.505Z,2.10
2022-07-29T22:17:48.346Z,2.07
2022-07-29T22:20:16.016Z,2.10
2022-07-29T22:22:43.881Z,2.27
2022-07-29T22:25:12.208Z,2.23
2022-07-29T22:27:40.119Z,2.20
2022-07-29T22:30:08.991Z,2.10
2022-07-29T22:32:37.318Z,2.30
2022-07-29T22:35:07.479Z,2.10
2022-07-29T22:37:35.148Z,2.30
2022-07-29T22:40:02.948Z,2.10
2022-07-29T22:42:30.458Z,2.20
2022-07-29T22:44:57.967Z,2.20
2022-07-29T22:47:46.285Z,2.40
2022-07-29T22:50:14.394Z,2.23
2022-07-29T22:52:41.895Z,2.07
2022-07-29T22:55:10.186Z,2.20
2022-07-29T22:57:37.684Z,2.03
2022-07-29T23:00:06.805Z,1.90
2022-07-29T23:02:36.131Z,2.00
2022-07-29T23:05:03.722Z,2.10
2022-07-29T23:07:32.534Z,2.30
2022-07-29T23:10:00.031Z,2.00
2022-07-29T23:12:27.650Z,2.30
2022-07-29T23:14:55.114Z,2.00
2022-07-29T23:17:22.893Z,2.10
2022-07-29T23:19:50.507Z,2.40
2022-07-29T23:22:18.528Z,2.20
2022-07-29T23:24:47.510Z,2.03
2022-07-29T23:27:15.033Z,1.93
2022-07-29T23:29:42.523Z,2.60
2022-07-29T23:32:10.083Z,2.10
2022-07-29T23:34:37.560Z,2.00
2022-07-29T23:37:05.602Z,2.37
2022-07-29T23:39:33.364Z,2.20
2022-07-29T23:42:03.208Z,2.00
2022-07-29T23:44:30.687Z,2.10
2022-07-29T23:46:58.408Z,2.20
2022-07-29T23:49:26.628Z,2.03
2022-07-29T23:51:54.118Z,2.20
2022-07-29T23:54:21.636Z,2.00
2022-07-29T23:56:49.100Z,2.10
2022-07-29T23:59:17.962Z,2.00
